Flight Track Log - Related Links

Times and Time Zones

All times are in EST time to prevent confusion due to time zone crossing. See the N1944E flight status page for this flight to view local times or setup timezone preferences in your user account.

Time Position Orientation Groundspeed Altitude Reporting Facility
EST Latitude Longitude Course Direction KTS MPH feet Rate Location/Type
Fri 07:26:02 PM 47.6258 -104.3631 228° Southwest 133 153 5,800  Level Salt Lake Center
Fri 07:27:04 PM 47.6114 -104.4142 247° West 134 154 6,600 927 Climbing Salt Lake Center
Fri 07:28:05 PM 47.5956 -104.4747 249° West 133 153 7,700 976 Climbing Salt Lake Center
Fri 07:29:07 PM 47.5778 -104.5214 241° Southwest 132 152 8,600 823 Climbing Salt Lake Center
Fri 07:30:09 PM 47.5592 -104.5667 239° Southwest 130 150 9,400 726 Climbing Salt Lake Center
Fri 07:31:00 PM 47.5492 -104.5811 228° Southwest  Level Estimated
Fri 07:31:11 PM 47.5392 -104.6111 236° Southwest 130 150 10,100  Level Salt Lake Center
Fri 07:32:13 PM 47.5189 -104.6569 237° Southwest 131 151 10,900 774 Climbing Salt Lake Center
Fri 07:33:15 PM 47.4969 -104.7044 236° Southwest 135 155 11,700 871 Climbing Salt Lake Center
Fri 07:34:17 PM 47.4739 -104.7603 239° Southwest 135 155 12,700 823 Climbing Salt Lake Center
Fri 07:35:19 PM 47.4542 -104.8092 239° Southwest 136 157 13,400 677 Climbing Salt Lake Center
Fri 07:36:21 PM 47.4331 -104.8636 240° Southwest 143 165 14,100 339 Climbing Salt Lake Center
Fri 07:37:23 PM 47.4097 -104.9281 242° Southwest 159 183 14,100  Level Salt Lake Center
Fri 07:38:25 PM 47.3811 -104.9969 238° Southwest 180 207 14,100  Level Salt Lake Center
Fri 07:39:27 PM 47.3544 -105.0608 238° Southwest 185 213 14,100  Level Salt Lake Center
Fri 07:40:28 PM 47.3217 -105.1372 238° Southwest 185 213 14,100  Level Salt Lake Center
Fri 07:41:30 PM 47.2939 -105.1997 237° Southwest 184 212 14,100  Level Salt Lake Center
Fri 07:42:32 PM 47.2678 -105.2606 238° Southwest 181 208 14,100  Level Salt Lake Center
Fri 07:43:34 PM 47.2431 -105.3214 239° Southwest 177 204 14,100  Level Salt Lake Center
Fri 07:44:36 PM 47.2183 -105.3828 239° Southwest 176 203 14,100  Level Salt Lake Center
Fri 07:45:38 PM 47.1922 -105.4447 238° Southwest 177 204 14,100  Level Salt Lake Center
Fri 07:46:40 PM 47.1606 -105.5183 238° Southwest 178 205 14,100  Level Salt Lake Center
Fri 07:47:42 PM 47.1336 -105.5836 239° Southwest 181 208 14,100  Level Salt Lake Center
Fri 07:48:44 PM 47.1067 -105.6461 238° Southwest 182 209 14,100 -49 Level Salt Lake Center
Fri 07:49:45 PM 47.0783 -105.7114 238° Southwest 186 214 14,000 -49 Descending Salt Lake Center
Fri 07:50:47 PM 47.0506 -105.7764 238° Southwest 188 216 14,000  Level Salt Lake Center
Fri 07:51:49 PM 47.0239 -105.8386 238° Southwest 185 213 14,000  Level Salt Lake Center
Fri 07:52:51 PM 46.9978 -105.9011 239° Southwest 182 209 14,000  Level Salt Lake Center
Fri 07:53:53 PM 46.9642 -105.9750 236° Southwest 182 209 14,000  Level Salt Lake Center
Fri 07:54:55 PM 46.9375 -106.0375 238° Southwest 182 209 14,000  Level Salt Lake Center
Fri 07:55:56 PM 46.9108 -106.1028 239° Southwest 185 213 14,000  Level Salt Lake Center
Fri 07:56:58 PM 46.8836 -106.1661 238° Southwest 185 213 14,000  Level Salt Lake Center
Fri 07:58:00 PM 46.8550 -106.2283 236° Southwest 184 212 14,000  Level Salt Lake Center
Fri 07:59:02 PM 46.8267 -106.2967 239° Southwest 190 219 14,000  Level Salt Lake Center
Fri 08:00:04 PM 46.7933 -106.3739 238° Southwest 190 219 14,000  Level Salt Lake Center
Fri 08:01:06 PM 46.7658 -106.4394 239° Southwest 189 217 14,000  Level Salt Lake Center
Fri 08:02:08 PM 46.7369 -106.5058 238° Southwest 192 221 14,000  Level Salt Lake Center
Fri 08:03:10 PM 46.7072 -106.5683 235° Southwest 190 219 14,000  Level Salt Lake Center
Fri 08:04:12 PM 46.6789 -106.6317 237° Southwest 189 217 14,000  Level Salt Lake Center
Fri 08:05:13 PM 46.6519 -106.6925 237° Southwest 185 213 14,000  Level Salt Lake Center
Fri 08:06:15 PM 46.6211 -106.7708 240° Southwest 185 213 14,000  Level Salt Lake Center
Fri 08:07:17 PM 46.5933 -106.8322 237° Southwest 187 215 14,000  Level Salt Lake Center
Fri 08:08:19 PM 46.5611 -106.9008 236° Southwest 188 216 14,000 -48 Level Salt Lake Center
Fri 08:09:21 PM 46.5356 -106.9575 237° Southwest 183 211 13,900 -48 Descending Salt Lake Center
Fri 08:10:23 PM 46.5083 -107.0225 239° Southwest 187 215 13,900 48 Level Salt Lake Center
Fri 08:11:25 PM 46.4742 -107.0983 237° Southwest 188 216 14,000 48 Climbing Salt Lake Center
Fri 08:12:27 PM 46.4475 -107.1642 240° Southwest 189 217 14,000  Level Salt Lake Center
Fri 08:13:29 PM 46.4172 -107.2275 235° Southwest 187 215 14,000  Level Salt Lake Center
Fri 08:14:30 PM 46.3908 -107.2858 237° Southwest 186 214 14,000  Level Salt Lake Center
Fri 08:15:32 PM 46.3625 -107.3508 238° Southwest 188 216 14,000  Level Salt Lake Center
Fri 08:16:34 PM 46.3336 -107.4114 235° Southwest 185 213 14,000  Level Salt Lake Center
Fri 08:17:36 PM 46.2992 -107.4881 237° Southwest 186 214 14,000  Level Salt Lake Center
Fri 08:18:38 PM 46.2714 -107.5486 236° Southwest 185 213 14,000  Level Salt Lake Center
Fri 08:19:40 PM 46.2400 -107.6156 236° Southwest 189 217 14,000  Level Salt Lake Center
Fri 08:20:41 PM 46.2125 -107.6758 237° Southwest 184 212 14,000  Level Salt Lake Center
Fri 08:21:43 PM 46.1836 -107.7436 238° Southwest 186 214 14,000 -242 Level Salt Lake Center
Fri 08:22:45 PM 46.1533 -107.8081 236° Southwest 194 223 13,500 -629 Descending Salt Lake Center
Fri 08:23:47 PM 46.1075 -107.8706 223° Southwest 208 239 12,700 -871 Descending Salt Lake Center
Fri 08:24:49 PM 46.0639 -107.9319 224° Southwest 218 251 11,700 -976 Descending Salt Lake Center
Fri 08:25:50 PM 46.0167 -107.9989 225° Southwest 222 255 10,700 -927 Descending Salt Lake Center
Fri 08:26:52 PM 45.9747 -108.0617 226° Southwest 221 254 9,800 -823 Descending Salt Lake Center
Fri 08:27:54 PM 45.9333 -108.1267 228° Southwest 209 241 9,000 -823 Descending Salt Lake Center
Fri 08:28:56 PM 45.9000 -108.1842 230° Southwest 192 221 8,100 -878 Descending Salt Lake Center
Fri 08:29:57 PM 45.8683 -108.2458 234° Southwest 191 220 7,200 -878 Descending Salt Lake Center
Fri 08:30:59 PM 45.8422 -108.3100 240° Southwest 176 203 6,300 -823 Descending Salt Lake Center
Fri 08:32:01 PM 45.8194 -108.3678 241° Southwest 169 194 5,500 -532 Descending Salt Lake Center
Fri 08:33:03 PM 45.8000 -108.4289 245° Southwest 159 183 5,200 -581 Descending Salt Lake Center
Fri 08:34:05 PM 45.7875 -108.4661 244° Southwest 111 128 4,300 -732 Descending Salt Lake Center
Fri 08:35:06 PM 45.7989 -108.5053 293° West 100 115 3,700 -590 Descending Salt Lake Center
Fri 08:37:00 PM 45.8000 -108.5333 240° Southwest  Level FlightAware Approximate
Fri 08:44:00 PM 45.8077 -108.5429 240° Southwest  Level Estimated

Login

Don't have an account? Register now (free) for customized features, flight alerts, and more!